Terminal Aerodrome Forecast
Issued by NWS

Home | Current Version | Previous Version | Graphics & Text | Print | Product List | Glossary On
Versions: 1 2 3 4 5 6 7 8 9 10 11 12 13 14 15 16 17 18 19 20 21 22 23 24 25 26 27 28 29 30 31 32 33 34 35 36 37 38 39 40
000
FTUS43 KLOT 242300
TAFORD
TAF
KORD 242335Z 2500/2606 26005KT P6SM BKN120
     FM250600 06006KT P6SM OVC009
      TEMPO 2511/2512 3SM -SN
     FM251200 05012G16KT 2SM -SN BR OVC009
     FM251400 05019G28KT 1 1/2SM -SN BR OVC008
      TEMPO 2514/2517 3/4SM -SN BR VV005
     FM251800 05019G28KT 3SM -SN BLSN OVC012
     FM252000 04019G26KT 6SM -SHSN OVC018
     FM252300 04015G23KT P6SM BKN025
     FM260300 03012KT P6SM SCT025=

USA.gov is the U.S. government's official web portal to all federal, state and local government web resources and services.